Graettinger, Iowa
Current Conditions -  °F | °C
As of 3:52 PM on Tuesday 21 Oct 2014 (Local Time) from KEST Reporting Station
Clear Clear  
Wind Chill: 66°   Ceiling: Unl
Heat Index: 66°   Visibility: 10mi
Dew Point: 41°   Wind: 14mph
Humidity: 40%   Direction: 150°SSE
Pressure: 30.08"   Gusts: NA
Location:  43.24°N, 94.75°W
Report Text: KEST 212052Z AUTO 15012KT 10SM CLR 19/05 A3008 RMK AO2 SLP189 T01890050 56013
Loading
Personal Weather Stations






























Interactive Weather Map
Tropical Storm Tracking
New forecast layout! Learn more

10-Day Weather Forecast

Advertisements
Track Severe Weather on mobile